createdAt,value
2023-03-16T00:01:42.069Z,56.30
2023-03-16T00:05:13.625Z,55.70
2023-03-16T00:08:39.185Z,59.90
2023-03-16T00:12:09.261Z,63.90
2023-03-16T00:15:21.717Z,55.70
2023-03-16T00:19:03.445Z,52.70
2023-03-16T00:22:44.174Z,58.60
2023-03-16T00:26:06.306Z,47.20
2023-03-16T00:29:54.336Z,50.80
2023-03-16T00:33:08.743Z,49.70
2023-03-16T00:36:38.193Z,46.20
2023-03-16T00:40:27.312Z,38.30
2023-03-16T00:44:16.270Z,36.90
2023-03-16T00:48:05.109Z,34.70
2023-03-16T00:51:39.203Z,36.90
2023-03-16T00:55:18.779Z,35.70
2023-03-16T00:58:58.122Z,44.20
2023-03-16T01:02:28.753Z,44.10
2023-03-16T01:06:20.512Z,42.20
2023-03-16T01:09:48.596Z,36.60
2023-03-16T01:13:23.594Z,35.60
2023-03-16T01:17:04.167Z,34.40
2023-03-16T01:20:53.184Z,31.80
2023-03-16T01:24:06.869Z,27.00
2023-03-16T01:27:48.153Z,33.40
2023-03-16T01:31:16.251Z,28.60
2023-03-16T01:35:02.946Z,27.80
2023-03-16T01:38:17.005Z,26.60
2023-03-16T01:42:06.025Z,27.50
2023-03-16T01:45:53.116Z,29.70
2023-03-16T01:49:31.570Z,28.60
2023-03-16T01:52:55.002Z,26.50
2023-03-16T01:56:20.796Z,33.20
2023-03-16T01:59:54.751Z,22.60
2023-03-16T02:03:43.721Z,26.70
2023-03-16T02:07:35.184Z,26.50
2023-03-16T02:11:12.986Z,25.20
2023-03-16T02:15:01.059Z,20.60
2023-03-16T02:18:48.801Z,22.10
2023-03-16T02:22:46.958Z,25.00
2023-03-16T02:26:52.788Z,27.30
2023-03-16T02:30:36.217Z,20.20
2023-03-16T02:34:25.060Z,20.80
2023-03-16T02:37:56.527Z,22.40
2023-03-16T02:41:54.018Z,19.50
2023-03-16T02:45:42.928Z,17.00
2023-03-16T02:49:24.629Z,18.60
2023-03-16T02:52:47.421Z,21.60
2023-03-16T02:56:36.291Z,17.50
2023-03-16T03:00:18.501Z,18.80
2023-03-16T03:03:49.702Z,17.20
2023-03-16T03:07:28.595Z,16.90
2023-03-16T03:10:44.485Z,17.40
2023-03-16T03:14:17.204Z,19.40
2023-03-16T03:17:47.258Z,16.50
2023-03-16T03:21:29.290Z,16.50
2023-03-16T03:24:54.133Z,14.30
2023-03-16T03:27:49.015Z,13.40
2023-03-16T03:31:37.989Z,16.30
2023-03-16T03:35:16.979Z,16.60
2023-03-16T03:38:29.550Z,16.80
2023-03-16T03:42:08.925Z,19.30
2023-03-16T03:45:42.622Z,17.40
2023-03-16T03:49:04.383Z,19.80
2023-03-16T03:52:37.075Z,16.80
2023-03-16T03:56:26.056Z,16.50
2023-03-16T03:59:45.207Z,17.30
2023-03-16T04:03:22.781Z,15.50
2023-03-16T04:07:00.155Z,16.80
2023-03-16T04:10:14.661Z,17.40
2023-03-16T04:13:43.378Z,20.00
2023-03-16T04:17:14.366Z,16.70
2023-03-16T04:20:20.710Z,14.00
2023-03-16T04:23:54.978Z,13.80
2023-03-16T04:27:33.200Z,16.90
2023-03-16T04:30:58.188Z,18.80
2023-03-16T04:34:29.658Z,14.60
2023-03-16T04:38:08.562Z,14.50
2023-03-16T04:41:23.513Z,17.50
2023-03-16T04:44:54.619Z,15.90
2023-03-16T04:48:27.529Z,15.20
2023-03-16T04:52:19.267Z,13.50
2023-03-16T04:55:35.756Z,15.40
2023-03-16T04:58:49.890Z,14.70
2023-03-16T05:02:29.944Z,11.40
2023-03-16T05:06:03.854Z,14.30
2023-03-16T05:09:25.307Z,16.50
2023-03-16T05:12:44.410Z,17.40
2023-03-16T05:15:40.183Z,20.80
2023-03-16T05:18:54.436Z,16.10
2023-03-16T05:22:36.930Z,16.50
2023-03-16T05:25:40.220Z,18.30
2023-03-16T05:28:25.863Z,14.90
2023-03-16T05:31:49.077Z,19.30
2023-03-16T05:34:43.286Z,18.20
2023-03-16T05:37:24.272Z,18.30
2023-03-16T05:41:06.297Z,17.70
2023-03-16T05:44:58.464Z,24.50
2023-03-16T05:48:29.082Z,18.80
2023-03-16T05:51:26.009Z,24.20
2023-03-16T05:55:09.145Z,18.40
2023-03-16T05:58:58.587Z,20.70
2023-03-16T06:02:20.780Z,23.50
2023-03-16T06:05:32.107Z,17.30
2023-03-16T06:09:10.294Z,18.80
2023-03-16T06:13:00.114Z,20.90
2023-03-16T06:16:23.714Z,18.10
2023-03-16T06:19:01.065Z,15.50
2023-03-16T06:22:41.836Z,18.20
2023-03-16T06:26:24.553Z,17.80
2023-03-16T06:30:13.725Z,19.50
2023-03-16T06:34:02.650Z,17.30
2023-03-16T06:37:35.138Z,14.80
2023-03-16T06:41:24.128Z,22.50
2023-03-16T06:45:03.246Z,18.60
2023-03-16T06:48:52.264Z,18.40
2023-03-16T06:52:39.832Z,23.70
2023-03-16T06:56:12.966Z,20.90
2023-03-16T06:59:46.868Z,17.20
2023-03-16T07:03:15.225Z,21.30
2023-03-16T07:07:04.919Z,15.40
2023-03-16T07:10:25.321Z,17.30
2023-03-16T07:14:16.584Z,13.60
2023-03-16T07:17:51.840Z,17.80
2023-03-16T07:21:40.771Z,19.00
2023-03-16T07:25:30.495Z,12.80
2023-03-16T07:29:07.913Z,13.10
2023-03-16T07:33:01.120Z,15.90
2023-03-16T07:36:31.080Z,14.70
2023-03-16T07:40:21.239Z,15.00
2023-03-16T07:44:29.672Z,13.20
2023-03-16T07:48:12.655Z,16.30
2023-03-16T07:51:56.419Z,10.60
2023-03-16T07:55:42.233Z,15.10
2023-03-16T07:59:32.782Z,15.20
2023-03-16T08:03:22.270Z,15.80
2023-03-16T08:07:13.051Z,16.30
2023-03-16T08:11:09.177Z,13.80
2023-03-16T08:14:58.552Z,16.80
2023-03-16T08:18:54.771Z,12.30
2023-03-16T08:22:31.170Z,11.20
2023-03-16T08:26:19.934Z,15.00
2023-03-16T08:30:10.007Z,15.00
2023-03-16T08:33:54.002Z,15.50
2023-03-16T08:37:43.499Z,17.00
2023-03-16T08:41:34.024Z,11.50
2023-03-16T08:45:18.022Z,12.90
2023-03-16T08:49:07.270Z,13.80
2023-03-16T08:52:57.277Z,10.00
2023-03-16T08:56:34.806Z,11.50
2023-03-16T09:00:26.131Z,12.30
2023-03-16T09:04:16.976Z,12.00
2023-03-16T09:07:50.242Z,13.00
2023-03-16T09:11:33.829Z,12.30
2023-03-16T09:15:23.502Z,10.90
2023-03-16T09:18:58.454Z,12.20
2023-03-16T09:22:50.447Z,9.30
2023-03-16T09:26:30.525Z,10.70
2023-03-16T09:30:06.089Z,9.00
2023-03-16T09:33:55.851Z,8.40
2023-03-16T09:38:04.706Z,11.80
2023-03-16T09:42:17.729Z,8.60
2023-03-16T09:46:19.196Z,13.00
2023-03-16T09:50:24.437Z,10.60
2023-03-16T09:54:30.355Z,11.80
2023-03-16T09:58:28.491Z,12.20
2023-03-16T10:02:28.273Z,9.90
2023-03-16T10:06:23.820Z,10.30
2023-03-16T10:10:10.784Z,11.10
2023-03-16T10:13:55.062Z,9.80
2023-03-16T10:17:54.313Z,10.50
2023-03-16T10:21:35.878Z,12.00
2023-03-16T10:25:50.087Z,9.70
2023-03-16T10:29:41.062Z,8.60
2023-03-16T10:33:33.209Z,8.20
2023-03-16T10:37:28.671Z,11.60
2023-03-16T10:41:17.236Z,11.10
2023-03-16T10:45:11.192Z,11.60
2023-03-16T10:48:59.538Z,5.70
2023-03-16T10:52:54.378Z,11.50
2023-03-16T10:56:49.944Z,6.90
2023-03-16T11:00:42.286Z,12.30
2023-03-16T11:04:32.279Z,12.30
2023-03-16T11:08:31.651Z,12.50
2023-03-16T11:12:22.175Z,11.30
2023-03-16T11:16:10.433Z,9.30
2023-03-16T11:20:02.326Z,7.00
2023-03-16T11:23:50.013Z,5.40
2023-03-16T11:27:45.334Z,6.80
2023-03-16T11:31:34.112Z,12.40
2023-03-16T11:34:53.641Z,10.60
2023-03-16T11:38:56.777Z,6.90
2023-03-16T11:42:54.921Z,6.80
2023-03-16T11:46:49.158Z,9.30
2023-03-16T11:50:35.999Z,5.40
2023-03-16T11:54:16.655Z,7.30
2023-03-16T11:58:18.475Z,6.70
2023-03-16T12:02:29.644Z,7.40
2023-03-16T12:06:28.294Z,6.60
2023-03-16T12:10:25.542Z,9.30
2023-03-16T12:14:15.813Z,6.80
2023-03-16T12:18:04.355Z,6.00
2023-03-16T12:21:54.326Z,8.10
2023-03-16T12:25:35.911Z,7.80
2023-03-16T12:29:10.759Z,6.10
2023-03-16T12:33:11.055Z,7.10
2023-03-16T12:37:19.674Z,5.30
2023-03-16T12:41:10.015Z,8.40
2023-03-16T12:45:03.024Z,3.80
2023-03-16T12:48:56.818Z,8.00
2023-03-16T12:52:47.946Z,6.50
2023-03-16T12:56:27.415Z,7.70
2023-03-16T13:00:21.122Z,7.10
2023-03-16T13:04:25.207Z,8.60
2023-03-16T13:08:11.819Z,6.60
2023-03-16T13:12:01.750Z,7.20
2023-03-16T13:16:01.038Z,8.80
2023-03-16T13:19:58.563Z,6.60
2023-03-16T13:23:58.311Z,6.00
2023-03-16T13:28:00.571Z,6.50
2023-03-16T13:31:44.862Z,8.70
2023-03-16T13:34:53.204Z,9.30
2023-03-16T13:38:29.570Z,4.60
2023-03-16T13:42:12.053Z,6.80
2023-03-16T13:46:12.488Z,4.40
2023-03-16T13:50:02.839Z,3.80
2023-03-16T13:54:04.593Z,6.00
2023-03-16T13:57:53.775Z,7.10
2023-03-16T14:01:43.944Z,5.10
2023-03-16T14:05:17.280Z,6.00
2023-03-16T14:09:06.045Z,5.60
2023-03-16T14:12:55.023Z,5.40
2023-03-16T14:16:24.729Z,5.10
2023-03-16T14:20:05.376Z,4.70
2023-03-16T14:23:54.248Z,7.10
2023-03-16T14:27:57.951Z,6.40
2023-03-16T14:31:36.026Z,5.30
2023-03-16T14:35:31.810Z,5.80
2023-03-16T14:39:17.803Z,7.20
2023-03-16T14:42:32.843Z,5.40
2023-03-16T14:46:02.458Z,5.50
2023-03-16T14:49:55.045Z,5.50
2023-03-16T14:53:46.364Z,5.00
2023-03-16T14:57:36.970Z,4.80
2023-03-16T15:01:26.745Z,4.70
2023-03-16T15:05:11.796Z,5.60
2023-03-16T15:08:33.574Z,4.80
2023-03-16T15:12:03.622Z,5.60
2023-03-16T15:15:38.189Z,7.40
2023-03-16T15:19:13.127Z,6.40
2023-03-16T15:21:46.684Z,5.80
2023-03-16T15:25:25.344Z,5.40
2023-03-16T15:29:20.080Z,5.30
2023-03-16T15:32:17.466Z,4.00
2023-03-16T15:35:40.957Z,5.90
2023-03-16T15:39:30.429Z,5.30
2023-03-16T15:43:12.962Z,4.90
2023-03-16T15:46:33.645Z,3.30
2023-03-16T15:50:12.931Z,5.20
2023-03-16T15:54:14.349Z,4.00
2023-03-16T15:57:55.285Z,10.60
2023-03-16T16:01:39.739Z,3.30
2023-03-16T16:05:29.437Z,12.70
2023-03-16T16:09:12.202Z,4.20
2023-03-16T16:13:02.112Z,5.20
2023-03-16T16:16:45.730Z,11.00
2023-03-16T16:20:35.562Z,7.40
2023-03-16T16:24:03.029Z,15.20
2023-03-16T16:27:52.880Z,11.20
2023-03-16T16:31:44.441Z,23.10
2023-03-16T16:35:17.616Z,21.80
2023-03-16T16:38:41.469Z,30.70
2023-03-16T16:42:13.209Z,21.20
2023-03-16T16:45:50.416Z,18.90
2023-03-16T16:49:39.734Z,21.60
2023-03-16T16:53:24.966Z,47.50
2023-03-16T16:56:54.271Z,91.30
2023-03-16T17:00:59.212Z,110.80
2023-03-16T17:04:50.510Z,92.50
2023-03-16T17:08:43.284Z,82.00
2023-03-16T17:12:33.101Z,58.70
2023-03-16T17:16:21.139Z,87.10
2023-03-16T17:19:49.162Z,74.50
2023-03-16T17:23:38.817Z,45.80
2023-03-16T17:27:18.644Z,40.00
2023-03-16T17:31:08.634Z,36.60
2023-03-16T17:35:02.958Z,30.60
2023-03-16T17:38:46.788Z,26.80
2023-03-16T17:42:32.238Z,48.80
2023-03-16T17:46:07.612Z,56.50
2023-03-16T17:49:18.846Z,90.40
2023-03-16T17:52:54.854Z,95.10
2023-03-16T17:55:55.861Z,195.20
2023-03-16T17:59:15.432Z,191.40
2023-03-16T18:02:04.665Z,108.90
2023-03-16T18:05:39.164Z,117.10
2023-03-16T18:09:10.113Z,116.20
2023-03-16T18:11:53.686Z,118.50
2023-03-16T18:15:12.737Z,122.00
2023-03-16T18:18:17.020Z,118.90
2023-03-16T18:21:04.317Z,117.30
2023-03-16T18:23:57.451Z,84.50
2023-03-16T18:27:02.073Z,60.40
2023-03-16T18:30:07.676Z,61.90
2023-03-16T18:32:57.996Z,87.00
2023-03-16T18:36:05.029Z,127.90
2023-03-16T18:39:20.861Z,167.40
2023-03-16T18:42:03.298Z,144.00
2023-03-16T18:44:42.533Z,173.10
2023-03-16T18:47:44.927Z,259.70
2023-03-16T18:50:35.453Z,251.50
2023-03-16T18:53:35.584Z,226.30
2023-03-16T18:56:20.033Z,341.10
2023-03-16T18:59:12.606Z,325.20
2023-03-16T19:02:34.201Z,140.60
2023-03-16T19:05:56.889Z,177.20
2023-03-16T19:09:09.667Z,142.10
2023-03-16T19:12:36.618Z,163.30
2023-03-16T19:16:03.963Z,205.00
2023-03-16T19:19:29.256Z,292.90
2023-03-16T19:23:07.620Z,324.90
2023-03-16T19:26:44.576Z,288.30
2023-03-16T19:30:30.823Z,300.00
2023-03-16T19:33:58.324Z,276.40
2023-03-16T19:37:08.935Z,268.80
2023-03-16T19:40:15.666Z,254.70
2023-03-16T19:42:48.242Z,245.00
2023-03-16T19:45:57.947Z,254.20
2023-03-16T19:48:47.125Z,247.80
2023-03-16T19:51:18.240Z,264.40
2023-03-16T19:54:30.374Z,262.30
2023-03-16T19:57:14.608Z,241.90
2023-03-16T20:00:12.597Z,223.10
2023-03-16T20:03:31.330Z,224.10
2023-03-16T20:07:06.434Z,230.00
2023-03-16T20:10:34.272Z,205.20
2023-03-16T20:13:51.946Z,209.60
2023-03-16T20:16:38.747Z,193.60
2023-03-16T20:19:33.837Z,198.00
2023-03-16T20:22:30.894Z,189.70
2023-03-16T20:26:02.969Z,179.70
2023-03-16T20:29:42.785Z,164.60
2023-03-16T20:33:08.092Z,165.40
2023-03-16T20:36:57.873Z,167.50
2023-03-16T20:39:52.548Z,169.50
2023-03-16T20:43:22.718Z,166.40
2023-03-16T20:47:05.971Z,164.20
2023-03-16T20:50:39.058Z,195.80
2023-03-16T20:54:17.427Z,193.60
2023-03-16T20:57:44.442Z,193.80
2023-03-16T21:01:17.964Z,190.20
2023-03-16T21:05:07.271Z,165.80
2023-03-16T21:08:57.391Z,161.60
2023-03-16T21:12:47.077Z,151.10
2023-03-16T21:16:09.032Z,151.10
2023-03-16T21:19:39.645Z,145.90
2023-03-16T21:23:13.099Z,135.70
2023-03-16T21:26:47.453Z,123.90
2023-03-16T21:30:13.680Z,146.60
2023-03-16T21:34:01.702Z,137.10
2023-03-16T21:37:33.902Z,134.70
2023-03-16T21:41:02.094Z,140.90
2023-03-16T21:44:28.413Z,121.00
2023-03-16T21:48:20.497Z,121.80
2023-03-16T21:52:02.536Z,124.10
2023-03-16T21:55:29.234Z,121.00
2023-03-16T21:59:18.520Z,127.80
2023-03-16T22:03:13.881Z,136.90
2023-03-16T22:06:45.178Z,157.50
2023-03-16T22:10:08.119Z,127.80
2023-03-16T22:13:57.653Z,129.10
2023-03-16T22:17:45.768Z,93.40
2023-03-16T22:21:28.069Z,83.30
2023-03-16T22:25:11.506Z,65.50
2023-03-16T22:29:00.697Z,78.90
2023-03-16T22:32:50.011Z,68.90
2023-03-16T22:36:40.242Z,82.10
2023-03-16T22:40:21.856Z,85.00
2023-03-16T22:43:58.346Z,70.30
2023-03-16T22:47:23.878Z,53.30
2023-03-16T22:51:15.808Z,55.20
2023-03-16T22:54:56.682Z,60.90
2023-03-16T22:58:51.992Z,49.80
2023-03-16T23:02:28.737Z,53.20
2023-03-16T23:06:03.711Z,56.80
2023-03-16T23:09:55.679Z,51.50
2023-03-16T23:13:36.522Z,55.30
2023-03-16T23:17:25.615Z,58.20
2023-03-16T23:21:17.450Z,56.60
2023-03-16T23:25:00.007Z,65.10
2023-03-16T23:28:31.106Z,58.70
2023-03-16T23:32:20.060Z,56.00
2023-03-16T23:36:17.893Z,53.10
2023-03-16T23:39:47.901Z,51.90
2023-03-16T23:43:36.786Z,47.40
2023-03-16T23:47:20.511Z,47.40
2023-03-16T23:51:09.656Z,43.10
2023-03-16T23:54:42.061Z,36.90
2023-03-16T23:58:04.849Z,43.10
